This is the latest recevied weather packets stored in our database for station/object KK7MLS-13. If no packets are shown the sender has not sent any weather packets the latest 10 day(s).
| Time | Temp. | Humidity | Pressure | Rain* | Wind** | Luminosity | Snow |
|---|---|---|---|---|---|---|---|
| 1777959083 | 15.56° C | 76% | 1012.8 hPa | 0 mm | - | 0 W/m² | - |
| 1777958780 | 15.56° C | 75% | 1012.6 hPa | 0 mm | - | 0 W/m² | - |
| 1777958478 | 15.56° C | 74% | 1012.6 hPa | 0 mm | - | 0 W/m² | - |
| 1777958174 | 16.11° C | 74% | 1012.6 hPa | 0 mm | - | 0 W/m² | - |
| 1777957872 | 16.11° C | 74% | 1012.5 hPa | 0 mm | - | 0 W/m² | - |
| 1777957570 | 16.67° C | 73% | 1012.6 hPa | 0 mm | - | 0 W/m² | - |
| 1777956963 | 17.22° C | 71% | 1012.5 hPa | 0 mm | - | 0 W/m² | - |
| 1777956661 | 17.22° C | 70% | 1012.2 hPa | 0 mm | - | 0 W/m² | - |
| 1777956358 | 17.78° C | 70% | 1012.1 hPa | 0 mm | - | 0 W/m² | - |
| 1777956055 | 17.78° C | 69% | 1012.2 hPa | 0 mm | - | 0 W/m² | - |
| 1777955751 | 17.78° C | 69% | 1012.1 hPa | 0 mm | - | 0 W/m² | - |
| 1777955448 | 17.78° C | 69% | 1012.1 hPa | 0 mm | - | 0 W/m² | - |
| 1777955143 | 17.78° C | 69% | 1011.9 hPa | 0 mm | - | 0 W/m² | - |
| 1777954841 | 17.78° C | 69% | 1011.9 hPa | 0 mm | - | 0 W/m² | - |
| 1777954538 | 18.33° C | 68% | 1011.7 hPa | 0 mm | - | 0 W/m² | - |
| 1777954235 | 18.33° C | 67% | 1011.7 hPa | 0 mm | - | 0 W/m² | - |
| 1777953932 | 18.33° C | 67% | 1011.6 hPa | 0 mm | - | 0 W/m² | - |
| 1777953630 | 18.33° C | 67% | 1011.5 hPa | 0 mm | - | 0 W/m² | - |
| 1777943323 | 25.56° C | 52% | 1010.8 hPa | 0 mm | - | 142 W/m² | - |
| 1777943019 | 24.44° C | 54% | 1010.9 hPa | 0 mm | - | 173 W/m² | - |
| 1777942716 | 25.56° C | 52% | 1011 hPa | 0 mm | - | 193 W/m² | - |
| 1777941504 | 26.11° C | 49% | 1011 hPa | 0 mm | - | 250 W/m² | - |
| 1777941201 | 26.11° C | 50% | 1011.1 hPa | 0 mm | - | 266 W/m² | - |
| 1777940897 | 26.11° C | 50% | 1011 hPa | 0 mm | - | 278 W/m² | - |
| 1777940594 | 26.11° C | 51% | 1011.2 hPa | 0 mm | - | 291 W/m² | - |
* Rain latest hour (hover to see other rain measurements)
** Current wind speed in m/s (hover to see current wind gust speed)